KQVF

Manda Bay

Manda Bay, Kenya
METAR KQVF 252156Z AUTO 00000KT M /// /// M 25/23 A2990 RMK AO2 SLPNO WND DATA ESTMD P0006 T02500231 $
Observed Flight Rules
May-25 @ 21:56 UTC (35 minutes ago)
Temperatures Readings Precipitation
Current 25°C / 77°F
Dewpoint 23°C / 73°F
Humidity 89%
Altimeter 29.9" Hg
Pressure 1013 hPa
Current Rain 0.06
METAR KQVF 252156Z AUTO 00000KT M /// /// M 25/23 A2990 RMK AO2 SLPNO WND DATA ESTMD P0006 T02500231 $
Observed Flight Rules
May-25 @ 21:56 UTC
(35 minutes ago)
Temperature Dewpoint
25°C / 77°F 23°C / 73°F
Humidity Altimeter Pressure
89% 29.9" Hg 1013 hPa
Current Rain
0.06